sensor_id;sensor_type;location;lat;lon;timestamp;temperature;humidity
5457;DHT22;2751;49.802;9.944;2023-04-29T00:01:35;11.10;99.90
5457;DHT22;2751;49.802;9.944;2023-04-29T00:04:03;11.10;99.90
5457;DHT22;2751;49.802;9.944;2023-04-29T00:06:31;11.10;99.90
5457;DHT22;2751;49.802;9.944;2023-04-29T00:08:57;11.00;99.90
5457;DHT22;2751;49.802;9.944;2023-04-29T00:11:24;11.00;99.90
5457;DHT22;2751;49.802;9.944;2023-04-29T00:13:51;10.90;99.90
5457;DHT22;2751;49.802;9.944;2023-04-29T00:16:18;10.90;99.90
5457;DHT22;2751;49.802;9.944;2023-04-29T00:18:45;10.80;99.90
5457;DHT22;2751;49.802;9.944;2023-04-29T00:21:13;10.80;99.90
5457;DHT22;2751;49.802;9.944;2023-04-29T00:23:40;10.80;99.90
5457;DHT22;2751;49.802;9.944;2023-04-29T00:26:06;10.70;99.90
5457;DHT22;2751;49.802;9.944;2023-04-29T00:28:33;10.80;99.90
5457;DHT22;2751;49.802;9.944;2023-04-29T00:31:00;10.70;99.90
5457;DHT22;2751;49.802;9.944;2023-04-29T00:33:27;10.70;99.90
5457;DHT22;2751;49.802;9.944;2023-04-29T00:35:54;10.60;99.90
5457;DHT22;2751;49.802;9.944;2023-04-29T00:38:22;10.60;99.90
5457;DHT22;2751;49.802;9.944;2023-04-29T00:40:49;10.60;99.90
5457;DHT22;2751;49.802;9.944;2023-04-29T00:43:16;10.60;99.90
5457;DHT22;2751;49.802;9.944;2023-04-29T00:45:43;10.60;99.90
5457;DHT22;2751;49.802;9.944;2023-04-29T00:48:10;10.60;99.90
5457;DHT22;2751;49.802;9.944;2023-04-29T00:50:37;10.50;99.90
5457;DHT22;2751;49.802;9.944;2023-04-29T00:53:04;10.50;99.90
5457;DHT22;2751;49.802;9.944;2023-04-29T00:55:33;10.40;99.90
5457;DHT22;2751;49.802;9.944;2023-04-29T00:58:01;10.40;99.90
5457;DHT22;2751;49.802;9.944;2023-04-29T01:00:29;10.40;99.90
5457;DHT22;2751;49.802;9.944;2023-04-29T01:02:56;10.30;99.90
5457;DHT22;2751;49.802;9.944;2023-04-29T01:05:24;10.30;99.90
5457;DHT22;2751;49.802;9.944;2023-04-29T01:08:03;10.20;99.90
5457;DHT22;2751;49.802;9.944;2023-04-29T01:10:38;10.20;99.90
5457;DHT22;2751;49.802;9.944;2023-04-29T01:13:13;10.20;99.90
5457;DHT22;2751;49.802;9.944;2023-04-29T01:15:46;10.10;99.90
5457;DHT22;2751;49.802;9.944;2023-04-29T01:18:19;10.10;99.90
5457;DHT22;2751;49.802;9.944;2023-04-29T01:20:48;10.00;99.90
5457;DHT22;2751;49.802;9.944;2023-04-29T01:23:15;9.90;99.90
5457;DHT22;2751;49.802;9.944;2023-04-29T01:25:43;9.90;99.90
5457;DHT22;2751;49.802;9.944;2023-04-29T01:28:18;9.90;99.90
5457;DHT22;2751;49.802;9.944;2023-04-29T01:30:52;9.90;99.90
5457;DHT22;2751;49.802;9.944;2023-04-29T01:33:28;10.20;99.90
5457;DHT22;2751;49.802;9.944;2023-04-29T01:36:07;9.90;99.90
5457;DHT22;2751;49.802;9.944;2023-04-29T01:38:42;10.00;99.90
5457;DHT22;2751;49.802;9.944;2023-04-29T01:41:14;10.00;99.90
5457;DHT22;2751;49.802;9.944;2023-04-29T01:43:42;10.00;99.90
5457;DHT22;2751;49.802;9.944;2023-04-29T01:46:15;10.00;99.90
5457;DHT22;2751;49.802;9.944;2023-04-29T01:48:43;10.10;99.90
5457;DHT22;2751;49.802;9.944;2023-04-29T01:51:09;10.10;99.90
5457;DHT22;2751;49.802;9.944;2023-04-29T01:53:36;10.10;99.90
5457;DHT22;2751;49.802;9.944;2023-04-29T01:56:05;10.10;99.90
5457;DHT22;2751;49.802;9.944;2023-04-29T01:58:34;10.10;99.90
5457;DHT22;2751;49.802;9.944;2023-04-29T02:01:00;10.10;99.90
5457;DHT22;2751;49.802;9.944;2023-04-29T02:03:27;10.20;99.90
5457;DHT22;2751;49.802;9.944;2023-04-29T02:05:54;10.20;99.90
5457;DHT22;2751;49.802;9.944;2023-04-29T02:08:22;10.20;99.90
5457;DHT22;2751;49.802;9.944;2023-04-29T02:10:52;10.30;99.90
5457;DHT22;2751;49.802;9.944;2023-04-29T02:13:19;10.20;99.90
5457;DHT22;2751;49.802;9.944;2023-04-29T02:15:47;10.30;99.90
5457;DHT22;2751;49.802;9.944;2023-04-29T02:18:14;10.30;99.90
5457;DHT22;2751;49.802;9.944;2023-04-29T02:20:41;10.30;99.90
5457;DHT22;2751;49.802;9.944;2023-04-29T02:23:08;10.30;99.90
5457;DHT22;2751;49.802;9.944;2023-04-29T02:25:36;10.20;99.90
5457;DHT22;2751;49.802;9.944;2023-04-29T02:28:03;10.20;99.90
5457;DHT22;2751;49.802;9.944;2023-04-29T02:30:30;10.20;99.90
5457;DHT22;2751;49.802;9.944;2023-04-29T02:32:58;10.20;99.90
5457;DHT22;2751;49.802;9.944;2023-04-29T02:35:25;10.10;99.90
5457;DHT22;2751;49.802;9.944;2023-04-29T02:37:52;10.40;99.90
5457;DHT22;2751;49.802;9.944;2023-04-29T02:40:18;10.10;99.90
5457;DHT22;2751;49.802;9.944;2023-04-29T02:42:45;10.00;99.90
5457;DHT22;2751;49.802;9.944;2023-04-29T02:45:12;10.00;99.90
5457;DHT22;2751;49.802;9.944;2023-04-29T02:47:39;10.00;99.90
5457;DHT22;2751;49.802;9.944;2023-04-29T02:50:08;10.00;99.90
5457;DHT22;2751;49.802;9.944;2023-04-29T02:52:35;9.90;99.90
5457;DHT22;2751;49.802;9.944;2023-04-29T02:55:02;9.90;99.90
5457;DHT22;2751;49.802;9.944;2023-04-29T02:57:29;9.90;99.90
5457;DHT22;2751;49.802;9.944;2023-04-29T02:59:56;10.10;99.90
5457;DHT22;2751;49.802;9.944;2023-04-29T03:02:23;9.90;99.90
5457;DHT22;2751;49.802;9.944;2023-04-29T03:04:50;10.00;99.90
5457;DHT22;2751;49.802;9.944;2023-04-29T03:07:19;10.20;99.90
5457;DHT22;2751;49.802;9.944;2023-04-29T03:09:46;10.00;99.90
5457;DHT22;2751;49.802;9.944;2023-04-29T03:12:12;10.00;99.90
5457;DHT22;2751;49.802;9.944;2023-04-29T03:14:41;10.30;99.90
5457;DHT22;2751;49.802;9.944;2023-04-29T03:17:08;10.20;99.90
5457;DHT22;2751;49.802;9.944;2023-04-29T03:19:35;10.10;99.90
5457;DHT22;2751;49.802;9.944;2023-04-29T03:22:01;10.20;99.90
5457;DHT22;2751;49.802;9.944;2023-04-29T03:24:30;10.30;99.90
5457;DHT22;2751;49.802;9.944;2023-04-29T03:26:57;10.30;99.90
5457;DHT22;2751;49.802;9.944;2023-04-29T03:29:24;10.30;99.90
5457;DHT22;2751;49.802;9.944;2023-04-29T03:31:52;10.70;99.90
5457;DHT22;2751;49.802;9.944;2023-04-29T03:34:18;10.40;99.90
5457;DHT22;2751;49.802;9.944;2023-04-29T03:36:45;10.50;99.90
5457;DHT22;2751;49.802;9.944;2023-04-29T03:39:12;10.50;99.90
5457;DHT22;2751;49.802;9.944;2023-04-29T03:41:40;10.80;99.90
5457;DHT22;2751;49.802;9.944;2023-04-29T03:44:07;10.50;99.90
5457;DHT22;2751;49.802;9.944;2023-04-29T03:46:34;10.60;99.90
5457;DHT22;2751;49.802;9.944;2023-04-29T03:49:01;10.60;99.90
5457;DHT22;2751;49.802;9.944;2023-04-29T03:51:28;11.00;99.90
5457;DHT22;2751;49.802;9.944;2023-04-29T03:53:55;10.70;99.90
5457;DHT22;2751;49.802;9.944;2023-04-29T03:56:22;10.70;99.90
5457;DHT22;2751;49.802;9.944;2023-04-29T03:58:51;11.00;99.90
5457;DHT22;2751;49.802;9.944;2023-04-29T04:01:18;10.70;99.90
5457;DHT22;2751;49.802;9.944;2023-04-29T04:03:45;11.20;99.90
5457;DHT22;2751;49.802;9.944;2023-04-29T04:06:12;10.80;99.90
5457;DHT22;2751;49.802;9.944;2023-04-29T04:08:39;10.90;99.90
5457;DHT22;2751;49.802;9.944;2023-04-29T04:11:06;10.90;99.90
5457;DHT22;2751;49.802;9.944;2023-04-29T04:13:34;10.90;99.90
5457;DHT22;2751;49.802;9.944;2023-04-29T04:16:02;10.90;99.90
5457;DHT22;2751;49.802;9.944;2023-04-29T04:18:29;11.00;99.90
5457;DHT22;2751;49.802;9.944;2023-04-29T04:20:56;11.00;99.90
5457;DHT22;2751;49.802;9.944;2023-04-29T04:23:23;11.00;99.90
5457;DHT22;2751;49.802;9.944;2023-04-29T04:25:50;11.10;99.90
5457;DHT22;2751;49.802;9.944;2023-04-29T04:28:18;11.10;99.90
5457;DHT22;2751;49.802;9.944;2023-04-29T04:30:45;11.40;99.90
5457;DHT22;2751;49.802;9.944;2023-04-29T04:33:14;11.30;99.90
5457;DHT22;2751;49.802;9.944;2023-04-29T04:35:41;11.60;99.90
5457;DHT22;2751;49.802;9.944;2023-04-29T04:38:08;11.20;99.90
5457;DHT22;2751;49.802;9.944;2023-04-29T04:40:39;11.70;99.90
5457;DHT22;2751;49.802;9.944;2023-04-29T04:43:06;11.70;99.90
5457;DHT22;2751;49.802;9.944;2023-04-29T04:45:33;11.40;99.90
5457;DHT22;2751;49.802;9.944;2023-04-29T04:48:01;11.50;99.90
5457;DHT22;2751;49.802;9.944;2023-04-29T04:50:29;11.60;99.90
5457;DHT22;2751;49.802;9.944;2023-04-29T04:52:56;11.60;99.90
5457;DHT22;2751;49.802;9.944;2023-04-29T04:55:23;11.70;99.90
5457;DHT22;2751;49.802;9.944;2023-04-29T04:57:50;11.80;99.90
5457;DHT22;2751;49.802;9.944;2023-04-29T05:00:17;11.90;99.90
5457;DHT22;2751;49.802;9.944;2023-04-29T05:02:44;12.00;99.90
5457;DHT22;2751;49.802;9.944;2023-04-29T05:05:12;12.00;99.90
5457;DHT22;2751;49.802;9.944;2023-04-29T05:07:40;12.10;99.90
5457;DHT22;2751;49.802;9.944;2023-04-29T05:10:08;12.20;99.90
5457;DHT22;2751;49.802;9.944;2023-04-29T05:12:35;12.20;99.90
5457;DHT22;2751;49.802;9.944;2023-04-29T05:15:02;12.30;99.90
5457;DHT22;2751;49.802;9.944;2023-04-29T05:17:29;12.40;99.90
5457;DHT22;2751;49.802;9.944;2023-04-29T05:19:56;12.40;99.90
5457;DHT22;2751;49.802;9.944;2023-04-29T05:22:23;12.50;99.90
5457;DHT22;2751;49.802;9.944;2023-04-29T05:24:51;12.60;99.90
5457;DHT22;2751;49.802;9.944;2023-04-29T05:27:18;12.60;99.90
5457;DHT22;2751;49.802;9.944;2023-04-29T05:29:45;12.70;99.90
5457;DHT22;2751;49.802;9.944;2023-04-29T05:32:13;12.70;99.90
5457;DHT22;2751;49.802;9.944;2023-04-29T05:34:40;12.70;99.90
5457;DHT22;2751;49.802;9.944;2023-04-29T05:37:09;12.70;99.90
5457;DHT22;2751;49.802;9.944;2023-04-29T05:39:36;12.80;99.90
5457;DHT22;2751;49.802;9.944;2023-04-29T05:42:04;12.80;99.90
5457;DHT22;2751;49.802;9.944;2023-04-29T05:44:31;12.80;99.90
5457;DHT22;2751;49.802;9.944;2023-04-29T05:46:59;12.90;99.90
5457;DHT22;2751;49.802;9.944;2023-04-29T05:49:26;12.90;99.90
5457;DHT22;2751;49.802;9.944;2023-04-29T05:51:53;12.90;99.90
5457;DHT22;2751;49.802;9.944;2023-04-29T05:54:20;13.00;99.90
5457;DHT22;2751;49.802;9.944;2023-04-29T05:56:47;13.20;99.90
5457;DHT22;2751;49.802;9.944;2023-04-29T05:59:16;13.30;99.90
5457;DHT22;2751;49.802;9.944;2023-04-29T06:01:43;13.30;99.90
5457;DHT22;2751;49.802;9.944;2023-04-29T06:04:09;13.30;99.90
5457;DHT22;2751;49.802;9.944;2023-04-29T06:06:36;13.30;99.90
5457;DHT22;2751;49.802;9.944;2023-04-29T06:09:03;13.30;99.90
5457;DHT22;2751;49.802;9.944;2023-04-29T06:11:30;13.30;99.90
5457;DHT22;2751;49.802;9.944;2023-04-29T06:13:57;13.40;99.90
5457;DHT22;2751;49.802;9.944;2023-04-29T06:16:26;13.30;99.90
5457;DHT22;2751;49.802;9.944;2023-04-29T06:18:53;13.40;99.90
5457;DHT22;2751;49.802;9.944;2023-04-29T06:21:20;13.40;99.90
5457;DHT22;2751;49.802;9.944;2023-04-29T06:23:47;13.40;99.90
5457;DHT22;2751;49.802;9.944;2023-04-29T06:26:14;13.40;99.90
5457;DHT22;2751;49.802;9.944;2023-04-29T06:28:41;13.50;99.90
5457;DHT22;2751;49.802;9.944;2023-04-29T06:31:07;13.60;99.90
5457;DHT22;2751;49.802;9.944;2023-04-29T06:33:36;13.60;99.90
5457;DHT22;2751;49.802;9.944;2023-04-29T06:36:03;13.70;99.90
5457;DHT22;2751;49.802;9.944;2023-04-29T06:38:30;13.80;99.90
5457;DHT22;2751;49.802;9.944;2023-04-29T06:40:57;13.70;99.90
5457;DHT22;2751;49.802;9.944;2023-04-29T06:43:25;13.70;99.90
5457;DHT22;2751;49.802;9.944;2023-04-29T06:45:52;13.70;99.90
5457;DHT22;2751;49.802;9.944;2023-04-29T06:48:19;13.70;99.90
5457;DHT22;2751;49.802;9.944;2023-04-29T06:50:51;13.70;99.90
5457;DHT22;2751;49.802;9.944;2023-04-29T06:53:18;13.80;99.90
5457;DHT22;2751;49.802;9.944;2023-04-29T06:55:46;13.90;99.90
5457;DHT22;2751;49.802;9.944;2023-04-29T06:58:14;14.00;99.90
5457;DHT22;2751;49.802;9.944;2023-04-29T07:00:43;14.20;99.90
5457;DHT22;2751;49.802;9.944;2023-04-29T07:03:10;14.30;99.90
5457;DHT22;2751;49.802;9.944;2023-04-29T07:05:37;14.50;99.90
5457;DHT22;2751;49.802;9.944;2023-04-29T07:08:08;14.40;99.90
5457;DHT22;2751;49.802;9.944;2023-04-29T07:10:35;14.40;99.90
5457;DHT22;2751;49.802;9.944;2023-04-29T07:13:02;14.60;99.90
5457;DHT22;2751;49.802;9.944;2023-04-29T07:15:32;14.70;99.90
5457;DHT22;2751;49.802;9.944;2023-04-29T07:17:59;14.80;99.90
5457;DHT22;2751;49.802;9.944;2023-04-29T07:20:26;14.70;99.90
5457;DHT22;2751;49.802;9.944;2023-04-29T07:22:53;14.60;99.90
5457;DHT22;2751;49.802;9.944;2023-04-29T07:25:21;14.70;99.90
5457;DHT22;2751;49.802;9.944;2023-04-29T07:27:48;14.70;99.90
5457;DHT22;2751;49.802;9.944;2023-04-29T07:30:15;14.50;99.90
5457;DHT22;2751;49.802;9.944;2023-04-29T07:32:42;14.50;99.90
5457;DHT22;2751;49.802;9.944;2023-04-29T07:35:08;14.30;99.90
5457;DHT22;2751;49.802;9.944;2023-04-29T07:37:35;14.30;99.90
5457;DHT22;2751;49.802;9.944;2023-04-29T07:40:03;14.30;99.90
5457;DHT22;2751;49.802;9.944;2023-04-29T07:42:33;14.20;99.90
5457;DHT22;2751;49.802;9.944;2023-04-29T07:45:00;14.40;99.90
5457;DHT22;2751;49.802;9.944;2023-04-29T07:47:27;14.50;99.90
5457;DHT22;2751;49.802;9.944;2023-04-29T07:49:54;14.60;99.90
5457;DHT22;2751;49.802;9.944;2023-04-29T07:52:22;14.70;99.90
5457;DHT22;2751;49.802;9.944;2023-04-29T07:54:49;15.10;99.90
5457;DHT22;2751;49.802;9.944;2023-04-29T07:57:16;15.70;99.90
5457;DHT22;2751;49.802;9.944;2023-04-29T07:59:44;16.10;99.90
5457;DHT22;2751;49.802;9.944;2023-04-29T08:02:11;16.00;99.90
5457;DHT22;2751;49.802;9.944;2023-04-29T08:04:38;15.70;99.90
5457;DHT22;2751;49.802;9.944;2023-04-29T08:07:06;15.60;99.90
5457;DHT22;2751;49.802;9.944;2023-04-29T08:09:33;15.60;99.90
5457;DHT22;2751;49.802;9.944;2023-04-29T08:12:00;15.60;99.90
5457;DHT22;2751;49.802;9.944;2023-04-29T08:14:27;15.60;99.90
5457;DHT22;2751;49.802;9.944;2023-04-29T08:16:55;15.80;99.90
5457;DHT22;2751;49.802;9.944;2023-04-29T08:19:22;15.90;99.90
5457;DHT22;2751;49.802;9.944;2023-04-29T08:21:49;16.00;99.90
5457;DHT22;2751;49.802;9.944;2023-04-29T08:24:16;16.10;99.90
5457;DHT22;2751;49.802;9.944;2023-04-29T08:26:45;16.20;99.90
5457;DHT22;2751;49.802;9.944;2023-04-29T08:29:11;16.30;99.90
5457;DHT22;2751;49.802;9.944;2023-04-29T08:31:38;16.50;99.90
5457;DHT22;2751;49.802;9.944;2023-04-29T08:34:06;16.10;99.90
5457;DHT22;2751;49.802;9.944;2023-04-29T08:36:33;16.20;99.90
5457;DHT22;2751;49.802;9.944;2023-04-29T08:39:03;16.20;99.90
5457;DHT22;2751;49.802;9.944;2023-04-29T08:41:30;16.00;99.90
5457;DHT22;2751;49.802;9.944;2023-04-29T08:43:58;16.20;99.90
5457;DHT22;2751;49.802;9.944;2023-04-29T08:46:25;16.10;99.90
5457;DHT22;2751;49.802;9.944;2023-04-29T08:48:53;15.90;99.90
5457;DHT22;2751;49.802;9.944;2023-04-29T08:51:23;15.90;99.90
5457;DHT22;2751;49.802;9.944;2023-04-29T08:53:50;16.20;99.90
5457;DHT22;2751;49.802;9.944;2023-04-29T08:56:17;16.40;99.90
5457;DHT22;2751;49.802;9.944;2023-04-29T08:58:46;16.90;99.90
5457;DHT22;2751;49.802;9.944;2023-04-29T09:01:16;16.50;99.90
5457;DHT22;2751;49.802;9.944;2023-04-29T09:03:49;16.50;99.90
5457;DHT22;2751;49.802;9.944;2023-04-29T09:06:17;16.20;99.90
5457;DHT22;2751;49.802;9.944;2023-04-29T09:08:46;16.40;99.90
5457;DHT22;2751;49.802;9.944;2023-04-29T09:11:13;16.20;99.90
5457;DHT22;2751;49.802;9.944;2023-04-29T09:13:41;16.30;99.90
5457;DHT22;2751;49.802;9.944;2023-04-29T09:16:10;16.40;99.90
5457;DHT22;2751;49.802;9.944;2023-04-29T09:18:41;16.60;99.90
5457;DHT22;2751;49.802;9.944;2023-04-29T09:21:16;16.90;99.90
5457;DHT22;2751;49.802;9.944;2023-04-29T09:23:43;17.80;99.90
5457;DHT22;2751;49.802;9.944;2023-04-29T09:26:12;18.30;99.90
5457;DHT22;2751;49.802;9.944;2023-04-29T09:28:39;19.20;99.90
5457;DHT22;2751;49.802;9.944;2023-04-29T09:31:09;19.60;99.90
5457;DHT22;2751;49.802;9.944;2023-04-29T09:33:49;19.40;99.90
5457;DHT22;2751;49.802;9.944;2023-04-29T09:36:35;18.70;99.90
5457;DHT22;2751;49.802;9.944;2023-04-29T09:39:02;18.10;99.90
5457;DHT22;2751;49.802;9.944;2023-04-29T09:41:32;17.40;99.90
5457;DHT22;2751;49.802;9.944;2023-04-29T09:44:02;16.90;99.90
5457;DHT22;2751;49.802;9.944;2023-04-29T09:46:31;16.60;99.90
5457;DHT22;2751;49.802;9.944;2023-04-29T09:48:59;16.20;99.90
5457;DHT22;2751;49.802;9.944;2023-04-29T09:51:26;16.10;99.90
5457;DHT22;2751;49.802;9.944;2023-04-29T09:53:57;16.10;99.90
5457;DHT22;2751;49.802;9.944;2023-04-29T09:56:25;16.30;99.90
5457;DHT22;2751;49.802;9.944;2023-04-29T09:58:55;16.30;99.90
5457;DHT22;2751;49.802;9.944;2023-04-29T10:01:22;16.00;99.90
5457;DHT22;2751;49.802;9.944;2023-04-29T10:03:52;15.80;99.90
5457;DHT22;2751;49.802;9.944;2023-04-29T10:06:21;15.80;99.90
5457;DHT22;2751;49.802;9.944;2023-04-29T10:08:48;16.00;99.90
5457;DHT22;2751;49.802;9.944;2023-04-29T10:11:16;16.10;99.90
5457;DHT22;2751;49.802;9.944;2023-04-29T10:13:43;16.20;99.90
5457;DHT22;2751;49.802;9.944;2023-04-29T10:16:21;16.30;99.90
5457;DHT22;2751;49.802;9.944;2023-04-29T10:18:52;16.20;99.90
5457;DHT22;2751;49.802;9.944;2023-04-29T10:21:21;16.30;99.90
5457;DHT22;2751;49.802;9.944;2023-04-29T10:23:51;16.60;99.90
5457;DHT22;2751;49.802;9.944;2023-04-29T10:26:19;16.60;99.90
5457;DHT22;2751;49.802;9.944;2023-04-29T10:28:47;16.60;99.90
5457;DHT22;2751;49.802;9.944;2023-04-29T10:31:19;16.80;99.90
5457;DHT22;2751;49.802;9.944;2023-04-29T10:33:47;16.80;99.90
5457;DHT22;2751;49.802;9.944;2023-04-29T10:36:15;16.60;99.90
5457;DHT22;2751;49.802;9.944;2023-04-29T10:38:45;16.50;99.90
5457;DHT22;2751;49.802;9.944;2023-04-29T10:41:18;16.40;99.90
5457;DHT22;2751;49.802;9.944;2023-04-29T10:43:46;16.20;99.90
5457;DHT22;2751;49.802;9.944;2023-04-29T10:46:21;16.30;99.90
5457;DHT22;2751;49.802;9.944;2023-04-29T10:48:55;16.40;99.90
5457;DHT22;2751;49.802;9.944;2023-04-29T10:51:28;16.40;99.90
5457;DHT22;2751;49.802;9.944;2023-04-29T10:54:02;16.50;99.90
5457;DHT22;2751;49.802;9.944;2023-04-29T10:56:50;16.70;99.90
5457;DHT22;2751;49.802;9.944;2023-04-29T10:59:21;16.70;99.90
5457;DHT22;2751;49.802;9.944;2023-04-29T11:01:51;16.80;99.90
5457;DHT22;2751;49.802;9.944;2023-04-29T11:04:19;16.40;99.90
5457;DHT22;2751;49.802;9.944;2023-04-29T11:06:51;16.40;99.90
5457;DHT22;2751;49.802;9.944;2023-04-29T11:09:20;16.50;99.90
5457;DHT22;2751;49.802;9.944;2023-04-29T11:11:56;16.50;99.90
5457;DHT22;2751;49.802;9.944;2023-04-29T11:14:33;16.60;99.90
5457;DHT22;2751;49.802;9.944;2023-04-29T11:17:06;16.60;99.90
5457;DHT22;2751;49.802;9.944;2023-04-29T11:19:34;16.60;99.90
5457;DHT22;2751;49.802;9.944;2023-04-29T11:22:10;17.00;99.90
5457;DHT22;2751;49.802;9.944;2023-04-29T11:24:48;17.50;99.90
5457;DHT22;2751;49.802;9.944;2023-04-29T11:27:16;18.40;99.90
5457;DHT22;2751;49.802;9.944;2023-04-29T11:29:45;18.80;99.90
5457;DHT22;2751;49.802;9.944;2023-04-29T11:32:13;18.90;99.90
5457;DHT22;2751;49.802;9.944;2023-04-29T11:34:41;18.50;99.90
5457;DHT22;2751;49.802;9.944;2023-04-29T11:37:08;18.10;99.90
5457;DHT22;2751;49.802;9.944;2023-04-29T11:39:36;18.00;99.90
5457;DHT22;2751;49.802;9.944;2023-04-29T11:42:03;17.30;99.90
5457;DHT22;2751;49.802;9.944;2023-04-29T11:44:33;17.00;99.90
5457;DHT22;2751;49.802;9.944;2023-04-29T11:47:03;16.90;99.90
5457;DHT22;2751;49.802;9.944;2023-04-29T11:49:32;16.90;99.90
5457;DHT22;2751;49.802;9.944;2023-04-29T11:52:01;16.80;99.90
5457;DHT22;2751;49.802;9.944;2023-04-29T11:54:29;16.70;99.90
5457;DHT22;2751;49.802;9.944;2023-04-29T11:56:57;16.60;99.90
5457;DHT22;2751;49.802;9.944;2023-04-29T11:59:24;16.50;99.90
5457;DHT22;2751;49.802;9.944;2023-04-29T12:01:52;16.60;99.90
5457;DHT22;2751;49.802;9.944;2023-04-29T12:04:18;16.50;99.90
5457;DHT22;2751;49.802;9.944;2023-04-29T12:06:50;16.40;99.90
5457;DHT22;2751;49.802;9.944;2023-04-29T12:09:17;16.20;99.90
5457;DHT22;2751;49.802;9.944;2023-04-29T12:11:45;16.30;99.90
5457;DHT22;2751;49.802;9.944;2023-04-29T12:14:12;16.50;99.90
5457;DHT22;2751;49.802;9.944;2023-04-29T12:16:39;16.50;99.90
5457;DHT22;2751;49.802;9.944;2023-04-29T12:19:07;16.50;99.90
5457;DHT22;2751;49.802;9.944;2023-04-29T12:21:35;16.50;99.90
5457;DHT22;2751;49.802;9.944;2023-04-29T12:24:05;16.60;99.90
5457;DHT22;2751;49.802;9.944;2023-04-29T12:26:32;16.60;99.90
5457;DHT22;2751;49.802;9.944;2023-04-29T12:29:00;16.30;99.90
5457;DHT22;2751;49.802;9.944;2023-04-29T12:31:33;16.70;99.90
5457;DHT22;2751;49.802;9.944;2023-04-29T12:34:02;16.80;99.90
5457;DHT22;2751;49.802;9.944;2023-04-29T12:36:29;17.00;99.90
5457;DHT22;2751;49.802;9.944;2023-04-29T12:38:58;17.30;99.90
5457;DHT22;2751;49.802;9.944;2023-04-29T12:41:39;17.70;99.90
5457;DHT22;2751;49.802;9.944;2023-04-29T12:44:07;17.90;99.90
5457;DHT22;2751;49.802;9.944;2023-04-29T12:46:35;18.50;99.90
5457;DHT22;2751;49.802;9.944;2023-04-29T12:49:03;18.70;99.90
5457;DHT22;2751;49.802;9.944;2023-04-29T12:51:30;18.70;99.90
5457;DHT22;2751;49.802;9.944;2023-04-29T12:53:58;18.40;99.90
5457;DHT22;2751;49.802;9.944;2023-04-29T12:56:25;18.20;99.90
5457;DHT22;2751;49.802;9.944;2023-04-29T12:58:54;18.00;99.90
5457;DHT22;2751;49.802;9.944;2023-04-29T13:01:21;17.70;99.90
5457;DHT22;2751;49.802;9.944;2023-04-29T13:03:48;17.50;99.90
5457;DHT22;2751;49.802;9.944;2023-04-29T13:06:16;17.30;99.90
5457;DHT22;2751;49.802;9.944;2023-04-29T13:08:43;17.20;99.90
5457;DHT22;2751;49.802;9.944;2023-04-29T13:11:10;17.10;99.90
5457;DHT22;2751;49.802;9.944;2023-04-29T13:13:37;17.00;99.90
5457;DHT22;2751;49.802;9.944;2023-04-29T13:16:07;16.90;99.90
5457;DHT22;2751;49.802;9.944;2023-04-29T13:18:34;16.70;99.90
5457;DHT22;2751;49.802;9.944;2023-04-29T13:21:01;16.70;99.90
5457;DHT22;2751;49.802;9.944;2023-04-29T13:23:28;16.80;99.90
5457;DHT22;2751;49.802;9.944;2023-04-29T13:25:55;16.80;99.90
5457;DHT22;2751;49.802;9.944;2023-04-29T13:28:22;16.90;99.90
5457;DHT22;2751;49.802;9.944;2023-04-29T13:30:49;17.10;99.90
5457;DHT22;2751;49.802;9.944;2023-04-29T13:33:18;17.30;99.90
5457;DHT22;2751;49.802;9.944;2023-04-29T13:35:46;17.50;99.90
5457;DHT22;2751;49.802;9.944;2023-04-29T13:38:13;18.00;99.90
5457;DHT22;2751;49.802;9.944;2023-04-29T13:40:42;18.30;99.90
5457;DHT22;2751;49.802;9.944;2023-04-29T13:43:09;18.60;99.90
5457;DHT22;2751;49.802;9.944;2023-04-29T13:45:35;18.60;99.90
5457;DHT22;2751;49.802;9.944;2023-04-29T13:48:03;18.50;99.90
5457;DHT22;2751;49.802;9.944;2023-04-29T13:50:31;18.40;99.90
5457;DHT22;2751;49.802;9.944;2023-04-29T13:52:58;18.50;99.90
5457;DHT22;2751;49.802;9.944;2023-04-29T13:55:25;18.20;99.90
5457;DHT22;2751;49.802;9.944;2023-04-29T13:57:53;18.00;99.90
5457;DHT22;2751;49.802;9.944;2023-04-29T14:00:19;18.20;99.90
5457;DHT22;2751;49.802;9.944;2023-04-29T14:02:46;18.40;99.90
5457;DHT22;2751;49.802;9.944;2023-04-29T14:05:13;18.60;99.90
5457;DHT22;2751;49.802;9.944;2023-04-29T14:07:42;18.60;99.90
5457;DHT22;2751;49.802;9.944;2023-04-29T14:10:09;18.60;99.90
5457;DHT22;2751;49.802;9.944;2023-04-29T14:12:36;18.10;99.90
5457;DHT22;2751;49.802;9.944;2023-04-29T14:15:03;17.80;99.90
5457;DHT22;2751;49.802;9.944;2023-04-29T14:17:30;17.40;99.90
5457;DHT22;2751;49.802;9.944;2023-04-29T14:19:57;17.30;99.90
5457;DHT22;2751;49.802;9.944;2023-04-29T14:22:24;17.10;99.90
5457;DHT22;2751;49.802;9.944;2023-04-29T14:24:52;16.90;99.90
5457;DHT22;2751;49.802;9.944;2023-04-29T14:27:19;16.70;99.90
5457;DHT22;2751;49.802;9.944;2023-04-29T14:29:47;16.40;99.90
5457;DHT22;2751;49.802;9.944;2023-04-29T14:32:13;16.20;99.90
5457;DHT22;2751;49.802;9.944;2023-04-29T14:34:40;16.10;99.90
5457;DHT22;2751;49.802;9.944;2023-04-29T14:37:07;15.90;99.90
5457;DHT22;2751;49.802;9.944;2023-04-29T14:39:34;15.30;99.90
5457;DHT22;2751;49.802;9.944;2023-04-29T14:42:03;15.60;99.90
5457;DHT22;2751;49.802;9.944;2023-04-29T14:44:30;15.40;99.90
5457;DHT22;2751;49.802;9.944;2023-04-29T14:46:56;15.30;99.90
5457;DHT22;2751;49.802;9.944;2023-04-29T14:49:23;15.30;99.90
5457;DHT22;2751;49.802;9.944;2023-04-29T14:51:50;15.40;99.90
5457;DHT22;2751;49.802;9.944;2023-04-29T14:54:17;15.50;99.90
5457;DHT22;2751;49.802;9.944;2023-04-29T14:56:44;15.40;99.90
5457;DHT22;2751;49.802;9.944;2023-04-29T14:59:12;15.40;99.90
5457;DHT22;2751;49.802;9.944;2023-04-29T15:01:39;15.50;99.90
5457;DHT22;2751;49.802;9.944;2023-04-29T15:04:06;15.60;99.90
5457;DHT22;2751;49.802;9.944;2023-04-29T15:06:33;15.80;99.90
5457;DHT22;2751;49.802;9.944;2023-04-29T15:09:00;15.80;99.90
5457;DHT22;2751;49.802;9.944;2023-04-29T15:11:30;15.70;99.90
5457;DHT22;2751;49.802;9.944;2023-04-29T15:13:57;15.70;99.90
5457;DHT22;2751;49.802;9.944;2023-04-29T15:16:26;15.70;99.90
5457;DHT22;2751;49.802;9.944;2023-04-29T15:18:53;15.80;99.90
5457;DHT22;2751;49.802;9.944;2023-04-29T15:21:19;15.80;99.90
5457;DHT22;2751;49.802;9.944;2023-04-29T15:23:47;15.80;99.90
5457;DHT22;2751;49.802;9.944;2023-04-29T15:26:14;15.90;99.90
5457;DHT22;2751;49.802;9.944;2023-04-29T15:28:41;15.80;99.90
5457;DHT22;2751;49.802;9.944;2023-04-29T15:31:10;15.90;99.90
5457;DHT22;2751;49.802;9.944;2023-04-29T15:33:38;16.00;99.90
5457;DHT22;2751;49.802;9.944;2023-04-29T15:36:05;16.10;99.90
5457;DHT22;2751;49.802;9.944;2023-04-29T15:38:32;16.20;99.90
5457;DHT22;2751;49.802;9.944;2023-04-29T15:40:59;16.20;99.90
5457;DHT22;2751;49.802;9.944;2023-04-29T15:43:28;16.20;99.90
5457;DHT22;2751;49.802;9.944;2023-04-29T15:45:57;16.30;99.90
5457;DHT22;2751;49.802;9.944;2023-04-29T15:48:24;16.50;99.90
5457;DHT22;2751;49.802;9.944;2023-04-29T15:50:53;16.60;99.90
5457;DHT22;2751;49.802;9.944;2023-04-29T15:53:20;16.60;99.90
5457;DHT22;2751;49.802;9.944;2023-04-29T15:55:47;16.50;99.90
5457;DHT22;2751;49.802;9.944;2023-04-29T15:58:14;16.30;99.90
5457;DHT22;2751;49.802;9.944;2023-04-29T16:00:41;16.10;99.90
5457;DHT22;2751;49.802;9.944;2023-04-29T16:03:08;15.90;99.90
5457;DHT22;2751;49.802;9.944;2023-04-29T16:05:35;15.80;99.90
5457;DHT22;2751;49.802;9.944;2023-04-29T16:08:04;15.80;99.90